createdAt,value
2019-01-09T00:00:34.275Z,1.65
2019-01-09T00:03:09.682Z,2.35
2019-01-09T00:05:45.941Z,2.10
2019-01-09T00:08:21.085Z,1.72
2019-01-09T00:10:51.266Z,2.37
2019-01-09T00:13:22.470Z,1.57
2019-01-09T00:15:54.686Z,2.22
2019-01-09T00:18:25.802Z,1.40
2019-01-09T00:20:55.782Z,2.33
2019-01-09T00:23:27.614Z,1.70
2019-01-09T00:26:07.502Z,1.62
2019-01-09T00:28:39.449Z,1.92
2019-01-09T00:31:10.242Z,2.10
2019-01-09T00:33:41.925Z,1.52
2019-01-09T00:36:11.738Z,1.75
2019-01-09T00:38:50.690Z,2.12
2019-01-09T00:41:20.510Z,1.45
2019-01-09T00:43:50.719Z,1.62
2019-01-09T00:46:24.607Z,1.80
2019-01-09T00:48:57.021Z,1.77
2019-01-09T00:51:28.705Z,2.52
2019-01-09T00:53:58.413Z,1.90
2019-01-09T00:56:30.366Z,1.70
2019-01-09T00:59:01.511Z,1.50
2019-01-09T01:01:32.895Z,1.90
2019-01-09T01:04:14.486Z,1.67
2019-01-09T01:07:00.750Z,1.50
2019-01-09T01:10:00.922Z,2.00
2019-01-09T01:12:46.246Z,1.70
2019-01-09T01:15:58.738Z,1.55
2019-01-09T01:19:00.586Z,1.52
2019-01-09T01:21:35.302Z,1.32
2019-01-09T01:24:32.579Z,1.42
2019-01-09T01:27:15.320Z,2.27
2019-01-09T01:30:04.293Z,2.08
2019-01-09T01:33:07.879Z,0.90
2019-01-09T01:36:01.222Z,2.27
2019-01-09T01:38:41.094Z,1.22
2019-01-09T01:41:23.666Z,1.25
2019-01-09T01:43:59.479Z,1.10
2019-01-09T01:47:02.411Z,1.55
2019-01-09T01:49:52.034Z,2.20
2019-01-09T01:52:36.622Z,2.30
2019-01-09T01:55:28.642Z,1.75
2019-01-09T01:58:27.492Z,1.57
2019-01-09T02:01:32.293Z,2.20
2019-01-09T02:04:28.175Z,1.80
2019-01-09T02:07:43.858Z,2.30
2019-01-09T02:10:42.434Z,1.70
2019-01-09T02:13:30.334Z,1.95
2019-01-09T02:16:27.354Z,2.20
2019-01-09T02:19:13.743Z,1.55
2019-01-09T02:21:55.222Z,2.08
2019-01-09T02:24:50.982Z,1.65
2019-01-09T02:27:34.508Z,1.30
2019-01-09T02:30:23.831Z,1.70
2019-01-09T02:32:53.813Z,1.02
2019-01-09T02:35:25.834Z,1.60
2019-01-09T02:37:55.907Z,1.72
2019-01-09T02:40:25.739Z,1.20
2019-01-09T02:42:55.693Z,1.30
2019-01-09T02:45:25.510Z,1.07
2019-01-09T02:47:55.575Z,1.17
2019-01-09T02:50:26.390Z,1.17
2019-01-09T02:52:56.356Z,1.10
2019-01-09T02:55:27.413Z,1.10
2019-01-09T02:57:58.202Z,1.50
2019-01-09T03:00:27.891Z,1.10
2019-01-09T03:02:57.646Z,1.25
2019-01-09T03:05:27.508Z,1.67
2019-01-09T03:07:58.404Z,0.72
2019-01-09T03:10:29.466Z,0.98
2019-01-09T03:13:02.485Z,1.05
2019-01-09T03:15:34.426Z,1.17
2019-01-09T03:18:04.740Z,1.00
2019-01-09T03:20:34.920Z,1.30
2019-01-09T03:23:05.020Z,1.15
2019-01-09T03:25:37.110Z,1.25
2019-01-09T03:28:08.946Z,0.82
2019-01-09T03:30:38.927Z,1.10
2019-01-09T03:33:09.025Z,1.20
2019-01-09T03:35:44.336Z,0.60
2019-01-09T03:38:16.432Z,0.90
2019-01-09T03:40:46.546Z,1.30
2019-01-09T03:43:17.583Z,3.25
2019-01-09T03:45:49.780Z,1.15
2019-01-09T03:48:19.854Z,0.80
2019-01-09T03:50:56.750Z,0.80
2019-01-09T03:53:35.457Z,1.00
2019-01-09T03:56:05.841Z,0.90
2019-01-09T03:58:35.691Z,1.30
2019-01-09T04:01:05.632Z,1.45
2019-01-09T04:03:35.738Z,0.75
2019-01-09T04:06:06.769Z,1.05
2019-01-09T04:08:36.930Z,0.90
2019-01-09T04:11:08.090Z,0.80
2019-01-09T04:13:37.927Z,0.70
2019-01-09T04:16:13.678Z,1.12
2019-01-09T04:18:44.505Z,1.25
2019-01-09T04:21:15.118Z,1.17
2019-01-09T04:23:45.087Z,1.15
2019-01-09T04:26:15.288Z,0.95
2019-01-09T04:28:45.074Z,1.47
2019-01-09T04:31:15.040Z,1.55
2019-01-09T04:33:47.137Z,1.32
2019-01-09T04:36:28.294Z,1.40
2019-01-09T04:38:59.655Z,1.25
2019-01-09T04:41:29.726Z,1.87
2019-01-09T04:44:01.784Z,1.70
2019-01-09T04:46:33.844Z,1.70
2019-01-09T04:49:03.654Z,1.82
2019-01-09T04:51:41.699Z,1.65
2019-01-09T04:54:12.470Z,2.02
2019-01-09T04:56:42.418Z,2.20
2019-01-09T04:59:12.250Z,2.12
2019-01-09T05:01:41.923Z,1.90
2019-01-09T05:04:13.584Z,1.60
2019-01-09T05:06:43.548Z,0.55
2019-01-09T05:09:15.564Z,0.60
2019-01-09T05:11:48.762Z,0.50
2019-01-09T05:14:18.848Z,0.50
2019-01-09T05:16:48.960Z,0.62
2019-01-09T05:19:20.968Z,0.60
2019-01-09T05:21:51.041Z,0.45
2019-01-09T05:24:28.224Z,0.50
2019-01-09T05:27:04.838Z,0.40
2019-01-09T05:29:40.586Z,0.45
2019-01-09T05:32:10.406Z,0.50
2019-01-09T05:34:41.335Z,0.50
2019-01-09T05:37:11.151Z,0.50
2019-01-09T05:39:41.135Z,0.50
2019-01-09T05:42:10.963Z,0.53
2019-01-09T05:44:41.913Z,0.50
2019-01-09T05:47:11.739Z,0.60
2019-01-09T05:49:41.691Z,1.12
2019-01-09T05:52:11.518Z,0.80
2019-01-09T05:54:41.660Z,0.60
2019-01-09T05:57:25.626Z,0.60
2019-01-09T05:59:55.758Z,0.50
2019-01-09T06:02:27.874Z,0.53
2019-01-09T06:05:00.788Z,0.80
2019-01-09T06:07:30.910Z,0.70
2019-01-09T06:10:08.684Z,1.02
2019-01-09T06:12:51.905Z,0.78
2019-01-09T06:15:23.176Z,0.68
2019-01-09T06:18:03.324Z,0.90
2019-01-09T06:20:39.288Z,1.02
2019-01-09T06:23:10.322Z,0.90
2019-01-09T06:25:44.711Z,1.40
2019-01-09T06:28:20.756Z,1.37
2019-01-09T06:30:50.945Z,1.32
2019-01-09T06:33:21.082Z,2.05
2019-01-09T06:35:51.244Z,1.42
2019-01-09T06:38:22.049Z,1.42
2019-01-09T06:40:52.294Z,1.75
2019-01-09T06:43:30.246Z,1.47
2019-01-09T06:46:00.004Z,1.70
2019-01-09T06:48:42.276Z,1.12
2019-01-09T06:51:14.292Z,2.35
2019-01-09T06:53:44.429Z,2.37
2019-01-09T06:56:15.291Z,1.82
2019-01-09T06:58:51.292Z,1.55
2019-01-09T07:01:24.336Z,1.70
2019-01-09T07:03:54.038Z,1.22
2019-01-09T07:06:29.691Z,1.15
2019-01-09T07:08:59.506Z,1.25
2019-01-09T07:11:29.463Z,1.27
2019-01-09T07:14:05.334Z,1.87
2019-01-09T07:16:35.417Z,1.77
2019-01-09T07:19:09.658Z,1.82
2019-01-09T07:21:52.061Z,2.20
2019-01-09T07:24:34.781Z,2.37
2019-01-09T07:27:08.324Z,1.60
2019-01-09T07:29:44.435Z,2.17
2019-01-09T07:32:17.657Z,2.30
2019-01-09T07:34:47.483Z,2.00
2019-01-09T07:37:17.152Z,2.47
2019-01-09T07:39:47.102Z,2.08
2019-01-09T07:42:18.131Z,2.05
2019-01-09T07:44:47.970Z,2.15
2019-01-09T07:47:19.262Z,1.95
2019-01-09T07:49:49.227Z,1.82
2019-01-09T07:52:19.182Z,2.10
2019-01-09T07:54:49.260Z,1.82
2019-01-09T07:57:21.339Z,2.08
2019-01-09T07:59:51.154Z,1.80
2019-01-09T08:02:22.042Z,1.72
2019-01-09T08:04:53.059Z,1.98
2019-01-09T08:07:24.867Z,2.33
2019-01-09T08:09:54.843Z,2.27
2019-01-09T08:12:24.550Z,1.90
2019-01-09T08:15:00.427Z,2.92
2019-01-09T08:17:34.992Z,2.62
2019-01-09T08:20:07.462Z,1.90
2019-01-09T08:22:37.547Z,2.25
2019-01-09T08:25:10.315Z,2.25
2019-01-09T08:27:40.264Z,2.27
2019-01-09T08:30:10.862Z,1.90
2019-01-09T08:32:42.438Z,1.85
2019-01-09T08:35:13.334Z,2.15
2019-01-09T08:37:44.296Z,1.90
2019-01-09T08:40:14.380Z,2.55
2019-01-09T08:42:45.592Z,2.58
2019-01-09T08:45:17.587Z,2.15
2019-01-09T08:47:47.673Z,2.00
2019-01-09T08:50:17.831Z,2.40
2019-01-09T08:52:49.019Z,1.62
2019-01-09T08:55:26.534Z,1.87
2019-01-09T08:57:57.368Z,1.82
2019-01-09T09:00:29.378Z,1.85
2019-01-09T09:02:59.461Z,2.00
2019-01-09T09:05:29.534Z,3.15
2019-01-09T09:08:11.975Z,1.67
2019-01-09T09:10:38.607Z,1.90
2019-01-09T09:13:12.557Z,2.33
2019-01-09T09:15:43.767Z,2.00
2019-01-09T09:18:14.748Z,2.90
2019-01-09T09:20:45.535Z,2.10
2019-01-09T09:23:15.486Z,2.15
2019-01-09T09:25:51.516Z,3.40
2019-01-09T09:28:21.640Z,3.87
2019-01-09T09:30:52.447Z,2.40
2019-01-09T09:33:23.279Z,1.47
2019-01-09T09:35:53.364Z,1.67
2019-01-09T09:38:26.758Z,2.98
2019-01-09T09:41:01.747Z,1.70
2019-01-09T09:43:37.595Z,2.35
2019-01-09T09:46:08.179Z,3.33
2019-01-09T09:48:39.764Z,1.90
2019-01-09T09:51:09.549Z,2.30
2019-01-09T09:53:39.498Z,1.92
2019-01-09T09:56:15.142Z,2.47
2019-01-09T09:58:48.707Z,2.15
2019-01-09T10:01:18.805Z,2.42
2019-01-09T10:03:50.895Z,1.85
2019-01-09T10:06:20.979Z,2.17
2019-01-09T10:08:51.066Z,2.27
2019-01-09T10:11:21.146Z,2.25
2019-01-09T10:13:51.248Z,2.55
2019-01-09T10:16:26.257Z,2.45
2019-01-09T10:18:56.870Z,2.00
2019-01-09T10:21:27.841Z,2.12
2019-01-09T10:24:06.731Z,2.08
2019-01-09T10:26:36.691Z,2.35
2019-01-09T10:29:06.963Z,2.45
2019-01-09T10:31:42.745Z,3.33
2019-01-09T10:34:14.502Z,1.47
2019-01-09T10:36:50.390Z,1.60
2019-01-09T10:39:26.063Z,3.20
2019-01-09T10:41:55.738Z,2.00
2019-01-09T10:44:28.646Z,1.57
2019-01-09T10:46:58.736Z,2.42
2019-01-09T10:49:28.843Z,2.30
2019-01-09T10:52:00.901Z,2.30
2019-01-09T10:54:30.993Z,1.95
2019-01-09T10:57:05.859Z,2.67
2019-01-09T10:59:37.490Z,2.25
2019-01-09T11:02:08.472Z,2.12
2019-01-09T11:04:38.570Z,2.05
2019-01-09T11:07:08.394Z,1.80
2019-01-09T11:09:44.376Z,3.12
2019-01-09T11:12:22.363Z,1.92
2019-01-09T11:14:52.043Z,2.08
2019-01-09T11:17:22.008Z,2.25
2019-01-09T11:19:58.228Z,1.52
2019-01-09T11:22:28.303Z,2.65
2019-01-09T11:24:58.133Z,2.08
2019-01-09T11:27:28.324Z,1.95
2019-01-09T11:29:58.142Z,2.87
2019-01-09T11:32:28.703Z,1.62
2019-01-09T11:34:58.403Z,1.57
2019-01-09T11:37:36.327Z,1.80
2019-01-09T11:40:12.195Z,1.45
2019-01-09T11:42:42.139Z,1.37
2019-01-09T11:45:16.212Z,1.70
2019-01-09T11:47:52.335Z,1.60
2019-01-09T11:50:28.560Z,1.65
2019-01-09T11:52:58.748Z,1.20
2019-01-09T11:55:28.828Z,1.35
2019-01-09T11:57:58.647Z,1.57
2019-01-09T12:00:29.307Z,1.30
2019-01-09T12:03:00.091Z,1.52
2019-01-09T12:05:36.106Z,1.80
2019-01-09T12:08:08.101Z,1.98
2019-01-09T12:10:38.176Z,2.22
2019-01-09T12:13:08.295Z,1.35
2019-01-09T12:15:42.447Z,2.02
2019-01-09T12:18:18.419Z,2.10
2019-01-09T12:21:01.798Z,2.80
2019-01-09T12:23:42.766Z,3.90
2019-01-09T12:26:14.607Z,2.00
2019-01-09T12:28:54.033Z,2.10
2019-01-09T12:31:26.057Z,2.05
2019-01-09T12:33:56.141Z,2.72
2019-01-09T12:36:32.032Z,2.08
2019-01-09T12:39:13.218Z,2.20
2019-01-09T12:41:40.215Z,3.58
2019-01-09T12:44:10.358Z,1.65
2019-01-09T12:46:46.751Z,1.77
2019-01-09T12:49:20.075Z,2.80
2019-01-09T12:51:50.160Z,1.92
2019-01-09T12:54:20.465Z,1.82
2019-01-09T12:56:50.661Z,1.82
2019-01-09T12:59:21.872Z,1.80
2019-01-09T13:01:53.113Z,1.90
2019-01-09T13:04:23.035Z,1.10
2019-01-09T13:06:52.989Z,1.45
2019-01-09T13:09:28.635Z,2.15
2019-01-09T13:12:00.599Z,1.62
2019-01-09T13:14:30.715Z,1.30
2019-01-09T13:17:00.833Z,1.82
2019-01-09T13:19:32.654Z,1.55
2019-01-09T13:22:02.663Z,2.15
2019-01-09T13:24:33.472Z,1.80
2019-01-09T13:27:03.231Z,2.47
2019-01-09T13:29:32.915Z,2.15
2019-01-09T13:32:03.011Z,1.90
2019-01-09T13:34:33.003Z,2.22
2019-01-09T13:37:10.759Z,1.50
2019-01-09T13:39:46.868Z,1.60
2019-01-09T13:42:17.873Z,1.62
2019-01-09T13:44:50.992Z,4.30
2019-01-09T13:47:23.940Z,1.70
2019-01-09T13:49:53.892Z,1.40
2019-01-09T13:52:28.171Z,1.52
2019-01-09T13:54:58.282Z,1.20
2019-01-09T13:57:28.199Z,1.95
2019-01-09T14:00:02.893Z,1.90
2019-01-09T14:02:40.717Z,1.82
2019-01-09T14:05:14.713Z,1.98
2019-01-09T14:07:45.585Z,1.47
2019-01-09T14:10:19.935Z,1.10
2019-01-09T14:12:51.888Z,1.00
2019-01-09T14:15:24.403Z,1.52
2019-01-09T14:17:56.115Z,1.40
2019-01-09T14:20:30.728Z,1.20
2019-01-09T14:23:00.812Z,0.80
2019-01-09T14:25:31.897Z,1.00
2019-01-09T14:28:07.939Z,1.15
2019-01-09T14:30:41.739Z,0.90
2019-01-09T14:33:11.755Z,1.20
2019-01-09T14:35:50.915Z,1.72
2019-01-09T14:38:20.856Z,1.30
2019-01-09T14:40:56.777Z,1.20
2019-01-09T14:43:27.499Z,1.32
2019-01-09T14:46:03.109Z,1.50
2019-01-09T14:48:41.292Z,1.02
2019-01-09T14:51:12.999Z,1.87
2019-01-09T14:53:47.215Z,1.60
2019-01-09T14:56:18.695Z,2.00
2019-01-09T14:58:48.527Z,1.80
2019-01-09T15:01:26.622Z,1.67
2019-01-09T15:04:02.518Z,1.85
2019-01-09T15:06:32.343Z,1.60
2019-01-09T15:09:02.293Z,2.17
2019-01-09T15:11:39.143Z,1.87
2019-01-09T15:14:17.359Z,1.45
2019-01-09T15:16:47.064Z,2.35
2019-01-09T15:19:17.011Z,2.05
2019-01-09T15:21:47.263Z,2.33
2019-01-09T15:24:18.276Z,2.33
2019-01-09T15:26:51.723Z,1.85
2019-01-09T15:29:21.815Z,2.00
2019-01-09T15:31:53.999Z,4.12
2019-01-09T15:34:25.146Z,1.75
2019-01-09T15:36:56.255Z,3.10
2019-01-09T15:39:26.123Z,4.25
2019-01-09T15:42:04.872Z,2.60
2019-01-09T15:44:48.295Z,2.83
2019-01-09T15:47:21.055Z,2.75
2019-01-09T15:49:51.021Z,2.62
2019-01-09T15:52:34.427Z,2.47
2019-01-09T15:55:16.271Z,2.35
2019-01-09T15:57:49.084Z,2.40
2019-01-09T16:00:32.167Z,2.15
2019-01-09T16:03:06.900Z,2.25
2019-01-09T16:05:36.613Z,2.60
2019-01-09T16:08:07.393Z,2.22
2019-01-09T16:10:37.303Z,2.72
2019-01-09T16:13:07.256Z,2.47
2019-01-09T16:15:37.379Z,2.10
2019-01-09T16:18:07.275Z,2.72
2019-01-09T16:20:40.095Z,2.87
2019-01-09T16:23:09.879Z,1.75
2019-01-09T16:25:39.920Z,2.52
2019-01-09T16:28:09.883Z,2.45
2019-01-09T16:31:01.057Z,2.55
2019-01-09T16:33:31.879Z,2.85
2019-01-09T16:36:01.893Z,2.40
2019-01-09T16:38:36.759Z,3.27
2019-01-09T16:41:06.857Z,2.42
2019-01-09T16:43:37.993Z,2.98
2019-01-09T16:46:07.983Z,3.00
2019-01-09T16:48:39.702Z,3.85
2019-01-09T16:51:14.548Z,3.50
2019-01-09T16:53:46.736Z,2.77
2019-01-09T16:56:16.563Z,3.47
2019-01-09T16:58:48.230Z,2.55
2019-01-09T17:01:18.501Z,3.22
2019-01-09T17:03:49.299Z,3.35
2019-01-09T17:06:19.313Z,3.00
2019-01-09T17:08:49.139Z,4.50
2019-01-09T17:11:19.273Z,3.80
2019-01-09T17:13:49.135Z,3.85
2019-01-09T17:16:19.093Z,3.55
2019-01-09T17:18:48.993Z,3.20
2019-01-09T17:21:18.695Z,3.55
2019-01-09T17:23:48.647Z,3.30
2019-01-09T17:26:18.813Z,3.77
2019-01-09T17:28:49.888Z,2.72
2019-01-09T17:31:19.978Z,3.50
2019-01-09T17:33:50.111Z,3.25
2019-01-09T17:36:20.144Z,3.52
2019-01-09T17:38:56.466Z,3.60
2019-01-09T17:41:27.299Z,4.30
2019-01-09T17:43:59.424Z,3.60
2019-01-09T17:46:32.687Z,3.37
2019-01-09T17:49:03.044Z,3.85
2019-01-09T17:51:34.161Z,3.25
2019-01-09T17:54:04.368Z,12.93
2019-01-09T17:56:34.104Z,5.12
2019-01-09T17:59:04.141Z,3.08
2019-01-09T18:01:33.983Z,3.72
2019-01-09T18:04:04.197Z,3.58
2019-01-09T18:06:34.355Z,4.30
2019-01-09T18:09:07.183Z,3.22
2019-01-09T18:11:37.580Z,3.15
2019-01-09T18:14:07.771Z,5.00
2019-01-09T18:16:42.137Z,3.22
2019-01-09T18:19:20.129Z,3.92
2019-01-09T18:21:50.313Z,3.55
2019-01-09T18:24:20.428Z,4.08
2019-01-09T18:26:50.450Z,4.10
2019-01-09T18:29:21.284Z,3.77
2019-01-09T18:31:56.973Z,3.65
2019-01-09T18:34:32.253Z,3.45
2019-01-09T18:37:18.979Z,3.55
2019-01-09T18:40:21.400Z,4.20
2019-01-09T18:43:21.112Z,4.60
2019-01-09T18:46:12.092Z,4.62
2019-01-09T18:48:56.775Z,4.15
2019-01-09T18:51:55.288Z,4.50
2019-01-09T18:54:25.176Z,4.45
2019-01-09T18:56:55.641Z,2.95
2019-01-09T18:59:27.328Z,4.62
2019-01-09T19:01:57.508Z,4.35
2019-01-09T19:04:27.865Z,3.83
2019-01-09T19:06:59.004Z,4.15
2019-01-09T19:09:28.945Z,4.05
2019-01-09T19:11:59.644Z,5.08
2019-01-09T19:14:29.368Z,3.62
2019-01-09T19:17:01.152Z,4.05
2019-01-09T19:19:31.228Z,4.30
2019-01-09T19:22:01.000Z,4.80
2019-01-09T19:24:30.969Z,3.50
2019-01-09T19:27:01.138Z,3.90
2019-01-09T19:29:31.229Z,3.92
2019-01-09T19:32:01.352Z,5.25
2019-01-09T19:34:32.219Z,4.72
2019-01-09T19:37:02.200Z,4.35
2019-01-09T19:39:32.996Z,4.60
2019-01-09T19:42:03.032Z,3.27
2019-01-09T19:44:32.907Z,5.10
2019-01-09T19:47:02.952Z,4.40
2019-01-09T19:49:32.825Z,4.90
2019-01-09T19:52:15.656Z,6.00
2019-01-09T19:54:45.636Z,3.35
2019-01-09T19:57:15.592Z,4.70
2019-01-09T19:59:45.295Z,4.33
2019-01-09T20:02:15.106Z,3.72
2019-01-09T20:04:45.004Z,3.08
2019-01-09T20:07:14.715Z,3.47
2019-01-09T20:09:44.674Z,3.52
2019-01-09T20:12:17.606Z,5.53
2019-01-09T20:14:47.406Z,5.72
2019-01-09T20:17:17.548Z,4.95
2019-01-09T20:19:47.478Z,3.37
2019-01-09T20:22:28.492Z,3.17
2019-01-09T20:24:58.472Z,3.10
2019-01-09T20:27:30.625Z,3.65
2019-01-09T20:30:01.436Z,3.80
2019-01-09T20:32:31.124Z,3.85
2019-01-09T20:35:06.045Z,4.00
2019-01-09T20:37:35.760Z,3.90
2019-01-09T20:40:11.368Z,3.70
2019-01-09T20:42:43.352Z,3.70
2019-01-09T20:45:18.990Z,4.08
2019-01-09T20:47:49.148Z,3.92
2019-01-09T20:50:25.156Z,3.75
2019-01-09T20:52:55.147Z,3.70
2019-01-09T20:55:27.008Z,3.40
2019-01-09T20:58:02.764Z,3.55
2019-01-09T21:00:35.702Z,3.30
2019-01-09T21:03:06.746Z,3.92
2019-01-09T21:05:38.688Z,3.65
2019-01-09T21:08:08.590Z,3.85
2019-01-09T21:10:38.695Z,3.00
2019-01-09T21:13:08.796Z,3.80
2019-01-09T21:15:41.271Z,3.27
2019-01-09T21:18:11.298Z,2.80
2019-01-09T21:20:41.130Z,2.52
2019-01-09T21:23:11.108Z,3.37
2019-01-09T21:25:41.360Z,2.80
2019-01-09T21:28:17.489Z,3.15
2019-01-09T21:30:47.744Z,3.15
2019-01-09T21:33:21.074Z,2.95
2019-01-09T21:35:53.008Z,2.90
2019-01-09T21:38:22.960Z,2.95
2019-01-09T21:41:04.912Z,2.90
2019-01-09T21:43:34.756Z,3.08
2019-01-09T21:46:06.125Z,3.25
2019-01-09T21:48:40.240Z,3.75
2019-01-09T21:51:10.072Z,3.05
2019-01-09T21:53:41.142Z,2.70
2019-01-09T21:56:18.148Z,2.80
2019-01-09T21:58:49.137Z,2.77
2019-01-09T22:01:19.414Z,3.10
2019-01-09T22:03:55.392Z,2.33
2019-01-09T22:06:25.237Z,3.20
2019-01-09T22:08:57.154Z,2.30
2019-01-09T22:11:30.784Z,2.72
2019-01-09T22:14:00.740Z,3.42
2019-01-09T22:16:31.806Z,1.77
2019-01-09T22:19:01.911Z,2.42
2019-01-09T22:21:33.744Z,2.30
2019-01-09T22:24:05.705Z,2.72
2019-01-09T22:26:35.794Z,2.33
2019-01-09T22:29:05.653Z,3.20
2019-01-09T22:31:35.361Z,2.58
2019-01-09T22:34:05.340Z,3.08
2019-01-09T22:36:37.112Z,2.87
2019-01-09T22:39:09.608Z,1.70
2019-01-09T22:41:39.562Z,2.40
2019-01-09T22:44:09.504Z,3.08
2019-01-09T22:46:39.188Z,2.85
2019-01-09T22:49:11.909Z,2.35
2019-01-09T22:51:41.866Z,1.87
2019-01-09T22:54:11.709Z,2.05
2019-01-09T22:56:41.388Z,2.45
2019-01-09T22:59:14.140Z,2.52
2019-01-09T23:01:44.552Z,2.00
2019-01-09T23:04:19.606Z,1.90
2019-01-09T23:06:49.724Z,2.27
2019-01-09T23:09:26.317Z,1.82
2019-01-09T23:11:56.156Z,1.37
2019-01-09T23:14:31.060Z,1.75
2019-01-09T23:17:00.976Z,2.00
2019-01-09T23:19:36.799Z,2.25
2019-01-09T23:22:07.492Z,1.80
2019-01-09T23:24:38.456Z,1.67
2019-01-09T23:27:08.193Z,1.50
2019-01-09T23:29:38.157Z,1.80
2019-01-09T23:32:08.405Z,1.50
2019-01-09T23:34:38.581Z,1.85
2019-01-09T23:37:08.416Z,1.87
2019-01-09T23:39:44.132Z,1.65
2019-01-09T23:42:17.396Z,2.45
2019-01-09T23:44:47.336Z,1.52
2019-01-09T23:47:18.192Z,2.05
2019-01-09T23:49:49.780Z,1.80
2019-01-09T23:52:21.448Z,2.17
2019-01-09T23:54:51.608Z,2.30
2019-01-09T23:57:22.437Z,1.60
2019-01-09T23:59:52.461Z,1.82
